createdAt,value
2017-06-15T00:00:01.838Z,18.90
2017-06-15T00:02:35.586Z,18.90
2017-06-15T00:05:09.428Z,18.90
2017-06-15T00:07:43.877Z,18.80
2017-06-15T00:10:17.880Z,18.70
2017-06-15T00:12:52.309Z,18.70
2017-06-15T00:15:26.302Z,18.70
2017-06-15T00:18:00.846Z,18.70
2017-06-15T00:20:34.940Z,18.60
2017-06-15T00:23:08.530Z,18.70
2017-06-15T00:25:42.349Z,18.50
2017-06-15T00:28:16.889Z,18.50
2017-06-15T00:30:51.576Z,18.50
2017-06-15T00:33:25.197Z,18.40
2017-06-15T00:35:59.124Z,18.40
2017-06-15T00:38:34.360Z,18.40
2017-06-15T00:41:09.126Z,18.30
2017-06-15T00:43:43.086Z,18.30
2017-06-15T00:46:16.917Z,18.30
2017-06-15T00:48:51.433Z,18.30
2017-06-15T00:51:25.505Z,18.20
2017-06-15T00:53:59.953Z,18.30
2017-06-15T00:56:34.045Z,18.30
2017-06-15T00:59:08.493Z,18.10
2017-06-15T01:01:42.545Z,18.10
2017-06-15T01:04:16.363Z,18.20
2017-06-15T01:06:50.172Z,18.10
2017-06-15T01:09:23.773Z,18.20
2017-06-15T01:11:57.616Z,18.10
2017-06-15T01:14:31.450Z,18.10
2017-06-15T01:17:05.301Z,18.10
2017-06-15T01:19:39.006Z,18.10
2017-06-15T01:22:12.844Z,18.10
2017-06-15T01:24:46.587Z,18.10
2017-06-15T01:27:21.446Z,18.10
2017-06-15T01:29:55.198Z,18.00
2017-06-15T01:32:29.044Z,17.80
2017-06-15T01:35:04.341Z,17.80
2017-06-15T01:37:39.017Z,17.70
2017-06-15T01:40:12.804Z,17.70
2017-06-15T01:42:46.653Z,17.70
2017-06-15T01:45:20.461Z,17.70
2017-06-15T01:47:54.421Z,17.60
2017-06-15T01:50:29.836Z,17.70
2017-06-15T01:53:03.901Z,17.60
2017-06-15T01:55:37.501Z,17.60
2017-06-15T01:58:12.138Z,17.40
2017-06-15T02:00:46.901Z,17.50
2017-06-15T02:03:20.837Z,17.40
2017-06-15T02:05:55.329Z,17.40
2017-06-15T02:08:30.273Z,17.40
2017-06-15T02:11:03.996Z,17.40
2017-06-15T02:13:38.432Z,17.40
2017-06-15T02:16:12.397Z,17.30
2017-06-15T02:18:46.418Z,17.30
2017-06-15T02:21:20.135Z,17.30
2017-06-15T02:23:54.118Z,17.30
2017-06-15T02:26:27.744Z,17.40
2017-06-15T02:29:01.365Z,17.30
2017-06-15T02:31:35.173Z,17.20
2017-06-15T02:34:09.148Z,17.20
2017-06-15T02:36:43.633Z,17.20
2017-06-15T02:39:17.526Z,17.10
2017-06-15T02:41:51.220Z,17.20
2017-06-15T02:44:25.067Z,17.20
2017-06-15T02:46:58.772Z,17.20
2017-06-15T02:49:32.482Z,17.20
2017-06-15T02:52:06.177Z,17.10
2017-06-15T02:54:40.781Z,17.00
2017-06-15T02:57:14.758Z,16.90
2017-06-15T02:59:49.328Z,17.00
2017-06-15T03:02:23.778Z,17.00
2017-06-15T03:04:57.922Z,16.90
2017-06-15T03:07:31.644Z,16.90
2017-06-15T03:10:06.242Z,16.80
2017-06-15T03:12:40.737Z,16.70
2017-06-15T03:15:14.618Z,16.60
2017-06-15T03:17:48.266Z,16.70
2017-06-15T03:20:22.721Z,16.80
2017-06-15T03:22:56.605Z,16.70
2017-06-15T03:25:31.437Z,16.80
2017-06-15T03:28:05.196Z,16.70
2017-06-15T03:30:38.925Z,16.70
2017-06-15T03:33:13.464Z,16.80
2017-06-15T03:35:47.260Z,16.70
2017-06-15T03:38:21.136Z,16.80
2017-06-15T03:40:54.894Z,16.80
2017-06-15T03:43:28.718Z,16.80
2017-06-15T03:46:02.577Z,16.70
2017-06-15T03:48:36.329Z,16.70
2017-06-15T03:51:09.973Z,16.70
2017-06-15T03:53:43.593Z,16.70
2017-06-15T03:56:18.052Z,16.70
2017-06-15T03:58:52.621Z,16.80
2017-06-15T04:01:26.621Z,16.70
2017-06-15T04:04:01.149Z,16.70
2017-06-15T04:06:34.768Z,16.80
2017-06-15T04:09:09.190Z,16.80
2017-06-15T04:11:43.178Z,16.70
2017-06-15T04:14:17.778Z,16.70
2017-06-15T04:16:51.730Z,16.70
2017-06-15T04:19:25.885Z,16.80
2017-06-15T04:21:59.649Z,16.80
2017-06-15T04:24:33.389Z,16.80
2017-06-15T04:27:07.198Z,16.90
2017-06-15T04:29:42.488Z,17.00
2017-06-15T04:32:16.321Z,16.90
2017-06-15T04:34:50.053Z,17.00
2017-06-15T04:37:23.963Z,17.00
2017-06-15T04:39:57.909Z,17.00
2017-06-15T04:42:33.201Z,17.00
2017-06-15T04:45:07.088Z,17.00
2017-06-15T04:47:40.925Z,17.00
2017-06-15T04:50:15.451Z,17.00
2017-06-15T04:52:49.209Z,16.90
2017-06-15T04:55:24.362Z,17.00
2017-06-15T04:57:58.665Z,17.10
2017-06-15T05:00:32.246Z,17.10
2017-06-15T05:03:06.086Z,17.10
2017-06-15T05:05:41.410Z,17.20
2017-06-15T05:08:15.288Z,17.10
2017-06-15T05:10:48.920Z,17.30
2017-06-15T05:13:22.528Z,17.40
2017-06-15T05:15:56.248Z,17.50
2017-06-15T05:18:30.098Z,17.50
2017-06-15T05:21:03.811Z,17.50
2017-06-15T05:23:38.396Z,17.70
2017-06-15T05:26:13.176Z,17.80
2017-06-15T05:28:48.165Z,17.80
2017-06-15T05:31:22.637Z,17.80
2017-06-15T05:33:56.794Z,17.80
2017-06-15T05:36:30.502Z,17.90
2017-06-15T05:39:05.038Z,18.00
2017-06-15T05:41:38.861Z,17.90
2017-06-15T05:44:12.642Z,18.10
2017-06-15T05:46:46.265Z,18.10
2017-06-15T05:49:19.905Z,18.30
2017-06-15T05:51:53.645Z,18.40
2017-06-15T05:54:28.249Z,18.50
2017-06-15T05:57:02.081Z,18.40
2017-06-15T05:59:35.931Z,18.50
2017-06-15T06:02:09.686Z,18.60
2017-06-15T06:04:43.510Z,18.70
2017-06-15T06:07:17.088Z,18.80
2017-06-15T06:09:50.748Z,18.90
2017-06-15T06:12:24.378Z,18.90
2017-06-15T06:14:58.073Z,18.90
2017-06-15T06:17:31.704Z,19.00
2017-06-15T06:20:05.409Z,19.00
2017-06-15T06:22:39.033Z,19.10
2017-06-15T06:25:13.601Z,19.20
2017-06-15T06:27:47.341Z,19.20
2017-06-15T06:30:21.130Z,19.30
2017-06-15T06:32:54.754Z,19.40
2017-06-15T06:35:28.726Z,19.40
2017-06-15T06:38:02.354Z,19.60
2017-06-15T06:40:36.288Z,19.60
2017-06-15T06:43:10.033Z,19.60
2017-06-15T06:45:43.910Z,19.70
2017-06-15T06:48:17.593Z,19.80
2017-06-15T06:50:51.405Z,19.90
2017-06-15T06:53:25.965Z,20.00
2017-06-15T06:56:00.925Z,19.90
2017-06-15T06:58:35.425Z,20.10
2017-06-15T07:01:09.337Z,20.00
2017-06-15T07:03:43.953Z,20.20
2017-06-15T07:06:18.040Z,20.10
2017-06-15T07:08:51.918Z,20.30
2017-06-15T07:11:26.536Z,20.30
2017-06-15T07:14:00.394Z,20.30
2017-06-15T07:16:34.161Z,20.20
2017-06-15T07:19:07.852Z,20.30
2017-06-15T07:21:42.573Z,20.40
2017-06-15T07:24:16.540Z,20.30
2017-06-15T07:26:50.402Z,20.40
2017-06-15T07:29:24.140Z,20.40
2017-06-15T07:31:58.000Z,20.60
2017-06-15T07:34:31.673Z,20.60
2017-06-15T07:37:05.560Z,20.70
2017-06-15T07:39:39.281Z,20.70
2017-06-15T07:42:13.360Z,20.80
2017-06-15T07:44:47.813Z,20.80
2017-06-15T07:47:21.621Z,20.90
2017-06-15T07:49:56.970Z,21.00
2017-06-15T07:52:31.065Z,20.90
2017-06-15T07:55:04.730Z,21.00
2017-06-15T07:57:38.385Z,21.10
2017-06-15T08:00:12.137Z,21.10
2017-06-15T08:02:46.028Z,21.20
2017-06-15T08:05:19.645Z,21.30
2017-06-15T08:07:53.384Z,21.30
2017-06-15T08:10:27.204Z,21.30
2017-06-15T08:13:01.860Z,21.50
2017-06-15T08:15:35.880Z,21.40
2017-06-15T08:18:09.637Z,21.50
2017-06-15T08:20:44.172Z,21.60
2017-06-15T08:23:18.247Z,21.50
2017-06-15T08:25:52.016Z,21.70
2017-06-15T08:28:25.728Z,21.70
2017-06-15T08:31:00.217Z,21.80
2017-06-15T08:33:34.309Z,21.70
2017-06-15T08:36:07.986Z,21.80
2017-06-15T08:38:41.833Z,21.90
2017-06-15T08:41:16.364Z,21.90
2017-06-15T08:43:50.256Z,21.90
2017-06-15T08:46:25.623Z,22.10
2017-06-15T08:48:59.600Z,22.00
2017-06-15T08:51:34.133Z,22.10
2017-06-15T08:54:08.018Z,22.10
2017-06-15T08:56:41.652Z,22.20
2017-06-15T08:59:15.354Z,22.20
2017-06-15T09:01:48.989Z,22.30
2017-06-15T09:04:23.533Z,22.40
2017-06-15T09:06:58.308Z,22.40
2017-06-15T09:09:32.645Z,22.30
2017-06-15T09:12:06.276Z,22.50
2017-06-15T09:14:40.821Z,22.50
2017-06-15T09:17:14.812Z,22.50
2017-06-15T09:19:49.334Z,22.60
2017-06-15T09:22:23.112Z,22.60
2017-06-15T09:24:57.872Z,22.70
2017-06-15T09:27:31.783Z,22.60
2017-06-15T09:30:05.624Z,22.70
2017-06-15T09:32:39.476Z,22.80
2017-06-15T09:35:13.464Z,22.80
2017-06-15T09:37:48.004Z,22.80
2017-06-15T09:40:21.873Z,22.90
2017-06-15T09:42:56.304Z,22.90
2017-06-15T09:45:30.213Z,22.80
2017-06-15T09:48:04.641Z,22.80
2017-06-15T09:50:38.604Z,22.80
2017-06-15T09:53:13.076Z,23.10
2017-06-15T09:55:48.016Z,23.00
2017-06-15T09:58:21.693Z,23.20
2017-06-15T10:00:55.596Z,23.10
2017-06-15T10:03:30.133Z,23.10
2017-06-15T10:06:04.012Z,23.10
2017-06-15T10:08:38.665Z,23.20
2017-06-15T10:11:12.856Z,23.10
2017-06-15T10:13:47.292Z,23.20
2017-06-15T10:16:21.249Z,23.20
2017-06-15T10:18:55.008Z,23.20
2017-06-15T10:21:28.925Z,23.20
2017-06-15T10:24:03.497Z,23.20
2017-06-15T10:26:38.172Z,23.20
2017-06-15T10:29:12.789Z,23.40
2017-06-15T10:31:46.855Z,23.40
2017-06-15T10:34:20.516Z,23.70
2017-06-15T10:36:54.297Z,23.80
2017-06-15T10:39:28.056Z,23.80
2017-06-15T10:42:02.694Z,23.90
2017-06-15T10:44:36.496Z,23.80
2017-06-15T10:47:10.928Z,24.10
2017-06-15T10:49:44.873Z,24.00
2017-06-15T10:52:18.610Z,24.10
2017-06-15T10:54:52.333Z,24.10
2017-06-15T10:57:26.118Z,24.10
2017-06-15T11:00:01.432Z,24.30
2017-06-15T11:02:35.495Z,24.30
2017-06-15T11:05:09.177Z,24.30
2017-06-15T11:07:43.733Z,24.20
2017-06-15T11:10:17.576Z,24.20
2017-06-15T11:12:51.348Z,24.10
2017-06-15T11:15:25.709Z,24.00
2017-06-15T11:17:59.893Z,23.90
2017-06-15T11:20:34.368Z,24.20
2017-06-15T11:23:08.921Z,24.80
2017-06-15T11:25:43.697Z,24.90
2017-06-15T11:28:17.724Z,24.80
2017-06-15T11:30:52.210Z,25.00
2017-06-15T11:33:26.008Z,25.10
2017-06-15T11:35:59.688Z,25.30
2017-06-15T11:38:33.700Z,25.40
2017-06-15T11:41:08.269Z,25.40
2017-06-15T11:43:42.056Z,25.60
2017-06-15T11:46:17.316Z,25.80
2017-06-15T11:48:51.422Z,25.70
2017-06-15T11:51:25.889Z,25.80
2017-06-15T11:53:59.884Z,26.10
2017-06-15T11:56:33.565Z,26.00
2017-06-15T11:59:07.224Z,26.20
2017-06-15T12:01:40.949Z,26.30
2017-06-15T12:04:15.496Z,26.30
2017-06-15T12:06:50.744Z,26.30
2017-06-15T12:09:24.924Z,26.30
2017-06-15T12:11:59.410Z,26.50
2017-06-15T12:14:33.185Z,26.40
2017-06-15T12:17:07.697Z,26.30
2017-06-15T12:19:42.309Z,26.50
2017-06-15T12:22:16.854Z,26.50
2017-06-15T12:24:51.722Z,26.50
2017-06-15T12:27:25.580Z,26.40
2017-06-15T12:29:59.328Z,26.30
2017-06-15T12:32:33.038Z,26.20
2017-06-15T12:35:06.904Z,26.20
2017-06-15T12:37:40.729Z,26.30
2017-06-15T12:40:15.337Z,26.30
2017-06-15T12:42:49.152Z,26.30
2017-06-15T12:45:22.817Z,26.50
2017-06-15T12:47:57.399Z,26.40
2017-06-15T12:50:31.085Z,26.30
2017-06-15T12:53:05.626Z,26.50
2017-06-15T12:55:40.252Z,26.80
2017-06-15T12:58:14.077Z,26.70
2017-06-15T13:00:47.910Z,26.90
2017-06-15T13:03:22.520Z,27.10
2017-06-15T13:05:57.308Z,27.20
2017-06-15T13:08:31.972Z,27.30
2017-06-15T13:11:06.072Z,27.30
2017-06-15T13:13:40.608Z,27.60
2017-06-15T13:16:15.297Z,27.60
2017-06-15T13:18:49.400Z,27.60
2017-06-15T13:21:23.924Z,27.70
2017-06-15T13:23:57.857Z,27.60
2017-06-15T13:26:32.417Z,27.80
2017-06-15T13:29:07.034Z,28.50
2017-06-15T13:31:41.184Z,28.40
2017-06-15T13:34:14.744Z,28.60
2017-06-15T13:36:48.450Z,28.60
2017-06-15T13:39:23.793Z,28.50
2017-06-15T13:41:57.876Z,28.40
2017-06-15T13:44:31.594Z,28.50
2017-06-15T13:47:06.297Z,28.80
2017-06-15T13:49:40.053Z,28.70
2017-06-15T13:52:13.848Z,29.00
2017-06-15T13:54:47.574Z,28.70
2017-06-15T13:57:23.108Z,28.50
2017-06-15T13:59:56.786Z,28.50
2017-06-15T14:02:30.721Z,28.70
2017-06-15T14:05:05.165Z,28.70
2017-06-15T14:07:39.802Z,28.00
2017-06-15T14:10:14.586Z,28.00
2017-06-15T14:12:49.253Z,27.90
2017-06-15T14:15:23.840Z,27.90
2017-06-15T14:17:58.500Z,28.60
2017-06-15T14:20:32.515Z,28.50
2017-06-15T14:23:06.387Z,29.30
2017-06-15T14:25:41.628Z,30.50
2017-06-15T14:28:16.956Z,30.80
2017-06-15T14:30:51.296Z,30.70
2017-06-15T14:33:25.112Z,30.80
2017-06-15T14:35:58.830Z,30.70
2017-06-15T14:38:32.593Z,30.50
2017-06-15T14:41:07.156Z,30.50
2017-06-15T14:43:41.884Z,30.70
2017-06-15T14:46:15.692Z,30.60
2017-06-15T14:48:49.453Z,31.00
2017-06-15T14:51:23.153Z,31.10
2017-06-15T14:53:57.210Z,31.40
2017-06-15T14:56:31.732Z,31.80
2017-06-15T14:59:05.604Z,31.80
2017-06-15T15:01:40.229Z,31.90
2017-06-15T15:04:14.302Z,31.90
2017-06-15T15:06:48.849Z,31.90
2017-06-15T15:09:47.517Z,31.60
2017-06-15T15:12:22.589Z,30.80
2017-06-15T15:14:56.774Z,30.80
2017-06-15T15:17:32.148Z,30.30
2017-06-15T15:20:06.142Z,30.30
2017-06-15T15:22:40.586Z,29.80
2017-06-15T15:25:15.420Z,29.80
2017-06-15T15:27:49.153Z,29.70
2017-06-15T15:30:32.420Z,29.60
2017-06-15T15:33:06.809Z,29.40
2017-06-15T15:35:40.712Z,29.40
2017-06-15T15:38:14.408Z,29.30
2017-06-15T15:40:48.220Z,29.20
2017-06-15T15:43:21.818Z,29.40
2017-06-15T15:45:55.609Z,29.40
2017-06-15T15:48:30.212Z,29.30
2017-06-15T15:51:04.216Z,29.30
2017-06-15T15:53:37.952Z,29.20
2017-06-15T15:56:13.756Z,29.10
2017-06-15T15:58:48.301Z,28.90
2017-06-15T16:01:22.233Z,28.90
2017-06-15T16:03:56.732Z,29.20
2017-06-15T16:06:30.792Z,29.10
2017-06-15T16:09:04.514Z,29.20
2017-06-15T16:11:38.501Z,29.10
2017-06-15T16:14:13.077Z,28.90
2017-06-15T16:16:47.110Z,28.80
2017-06-15T16:19:20.841Z,28.90
2017-06-15T16:21:55.565Z,28.60
2017-06-15T16:24:29.572Z,28.60
2017-06-15T16:27:04.085Z,28.60
2017-06-15T16:29:37.857Z,28.60
2017-06-15T16:32:11.862Z,28.60
2017-06-15T16:34:46.305Z,28.40
2017-06-15T16:37:20.404Z,28.30
2017-06-15T16:39:54.874Z,28.20
2017-06-15T16:42:28.822Z,28.20
2017-06-15T16:45:02.524Z,28.20
2017-06-15T16:47:37.119Z,28.00
2017-06-15T16:50:11.716Z,27.90
2017-06-15T16:52:45.852Z,27.80
2017-06-15T16:55:19.442Z,27.70
2017-06-15T16:57:53.245Z,27.60
2017-06-15T17:00:27.073Z,27.50
2017-06-15T17:03:01.024Z,27.40
2017-06-15T17:05:34.745Z,27.30
2017-06-15T17:08:08.702Z,27.20
2017-06-15T17:10:43.981Z,27.00
2017-06-15T17:13:18.060Z,26.90
2017-06-15T17:15:51.842Z,27.00
2017-06-15T17:18:26.416Z,26.80
2017-06-15T17:21:00.206Z,26.70
2017-06-15T17:23:33.980Z,26.70
2017-06-15T17:26:07.728Z,26.70
2017-06-15T17:28:42.410Z,26.50
2017-06-15T17:31:16.321Z,26.40
2017-06-15T17:33:51.070Z,26.40
2017-06-15T17:36:24.903Z,26.30
2017-06-15T17:38:58.749Z,26.30
2017-06-15T17:41:32.321Z,26.30
2017-06-15T17:44:06.061Z,26.30
2017-06-15T17:46:39.785Z,26.20
2017-06-15T17:49:13.462Z,26.20
2017-06-15T17:51:47.990Z,26.10
2017-06-15T17:54:22.640Z,26.00
2017-06-15T17:56:56.806Z,25.90
2017-06-15T17:59:30.683Z,25.90
2017-06-15T18:02:04.305Z,25.90
2017-06-15T18:04:38.177Z,25.90
2017-06-15T18:07:12.673Z,25.90
2017-06-15T18:09:46.695Z,25.80
2017-06-15T18:12:20.357Z,25.80
2017-06-15T18:14:54.827Z,25.70
2017-06-15T18:17:28.678Z,25.60
2017-06-15T18:20:02.445Z,25.60
2017-06-15T18:22:37.753Z,25.50
2017-06-15T18:25:12.480Z,25.40
2017-06-15T18:27:46.349Z,25.40
2017-06-15T18:30:19.977Z,25.50
2017-06-15T18:32:53.759Z,25.40
2017-06-15T18:35:27.553Z,25.40
2017-06-15T18:38:01.156Z,25.40
2017-06-15T18:40:35.112Z,25.40
2017-06-15T18:43:09.497Z,25.30
2017-06-15T18:45:43.594Z,25.30
2017-06-15T18:48:18.134Z,25.20
2017-06-15T18:50:52.302Z,25.10
2017-06-15T18:53:26.007Z,25.20
2017-06-15T18:56:00.898Z,25.20
2017-06-15T18:58:35.398Z,25.20
2017-06-15T19:01:09.484Z,25.10
2017-06-15T19:03:43.242Z,25.30
2017-06-15T19:06:17.089Z,25.40
2017-06-15T19:08:50.869Z,25.40
2017-06-15T19:11:24.725Z,25.50
2017-06-15T19:13:58.377Z,25.50
2017-06-15T19:16:32.356Z,25.40
2017-06-15T19:19:06.972Z,25.40
2017-06-15T19:21:41.153Z,25.40
2017-06-15T19:24:14.840Z,25.40
2017-06-15T19:26:49.476Z,25.30
2017-06-15T19:29:23.368Z,25.30
2017-06-15T19:31:58.229Z,25.20
2017-06-15T19:34:32.803Z,25.10
2017-06-15T19:37:07.772Z,25.10
2017-06-15T19:39:41.712Z,25.10
2017-06-15T19:42:16.296Z,25.00
2017-06-15T19:44:50.164Z,24.90
2017-06-15T19:47:24.025Z,24.90
2017-06-15T19:49:58.590Z,24.80
2017-06-15T19:52:32.676Z,24.70
2017-06-15T19:55:06.401Z,24.70
2017-06-15T19:57:40.284Z,24.60
2017-06-15T20:00:13.912Z,24.50
2017-06-15T20:02:47.841Z,24.40
2017-06-15T20:05:21.572Z,24.30
2017-06-15T20:07:55.468Z,24.30
2017-06-15T20:10:29.186Z,24.10
2017-06-15T20:13:03.196Z,24.10
2017-06-15T20:15:37.656Z,24.10
2017-06-15T20:18:11.449Z,24.00
2017-06-15T20:20:52.653Z,24.00
2017-06-15T20:23:27.714Z,24.00
2017-06-15T20:26:01.655Z,23.90
2017-06-15T20:28:35.464Z,24.00
2017-06-15T20:31:09.357Z,24.00
2017-06-15T20:33:43.785Z,24.00
2017-06-15T20:36:17.463Z,23.90
2017-06-15T20:38:52.281Z,23.70
2017-06-15T20:41:27.090Z,23.50
2017-06-15T20:44:01.760Z,23.50
2017-06-15T20:46:36.341Z,23.50
2017-06-15T20:49:11.097Z,23.50
2017-06-15T20:51:45.005Z,23.40
2017-06-15T20:54:19.548Z,23.50
2017-06-15T20:56:53.466Z,23.40
2017-06-15T20:59:27.309Z,23.50
2017-06-15T21:02:01.040Z,23.40
2017-06-15T21:04:34.953Z,23.40
2017-06-15T21:07:08.576Z,23.40
2017-06-15T21:09:42.221Z,23.30
2017-06-15T21:12:15.861Z,23.30
2017-06-15T21:14:50.552Z,23.20
2017-06-15T21:17:24.388Z,23.20
2017-06-15T21:19:58.349Z,23.20
2017-06-15T21:22:32.117Z,23.20
2017-06-15T21:25:05.789Z,23.20
2017-06-15T21:27:41.116Z,23.10
2017-06-15T21:30:15.201Z,23.00
2017-06-15T21:32:49.748Z,23.00
2017-06-15T21:35:23.716Z,22.90
2017-06-15T21:37:57.416Z,23.00
2017-06-15T21:40:31.185Z,23.00
2017-06-15T21:43:05.689Z,23.00
2017-06-15T21:45:40.456Z,23.00
2017-06-15T21:48:15.345Z,22.90
2017-06-15T21:50:49.501Z,22.90
2017-06-15T21:53:23.912Z,23.00
2017-06-15T21:55:59.577Z,22.90
2017-06-15T21:58:34.156Z,22.90
2017-06-15T22:01:08.245Z,22.80
2017-06-15T22:03:42.788Z,22.80
2017-06-15T22:06:16.853Z,22.80
2017-06-15T22:08:51.228Z,22.80
2017-06-15T22:11:25.436Z,22.80
2017-06-15T22:13:59.088Z,22.80
2017-06-15T22:16:32.868Z,22.70
2017-06-15T22:19:06.652Z,22.70
2017-06-15T22:21:41.221Z,22.70
2017-06-15T22:24:15.154Z,22.70
2017-06-15T22:26:50.829Z,22.80
2017-06-15T22:29:24.585Z,22.70
2017-06-15T22:31:58.493Z,22.80
2017-06-15T22:34:32.100Z,22.60
2017-06-15T22:37:06.821Z,22.60
2017-06-15T22:39:40.772Z,22.50
2017-06-15T22:42:14.492Z,22.50
2017-06-15T22:44:48.129Z,22.50
2017-06-15T22:47:22.745Z,22.50
2017-06-15T22:49:56.764Z,22.50
2017-06-15T22:52:30.534Z,22.50
2017-06-15T22:55:05.056Z,22.60
2017-06-15T22:57:40.245Z,22.50
2017-06-15T23:00:14.718Z,22.60
2017-06-15T23:03:00.601Z,22.60
2017-06-15T23:05:34.456Z,22.60
2017-06-15T23:08:09.157Z,22.60
2017-06-15T23:10:42.984Z,22.60
2017-06-15T23:13:17.520Z,22.60
2017-06-15T23:15:51.521Z,22.60
2017-06-15T23:18:26.969Z,22.50
2017-06-15T23:21:00.780Z,22.50
2017-06-15T23:23:34.657Z,22.50
2017-06-15T23:26:08.380Z,22.50
2017-06-15T23:28:44.137Z,22.50
2017-06-15T23:31:17.874Z,22.40
2017-06-15T23:33:52.537Z,22.40
2017-06-15T23:36:26.443Z,22.40
2017-06-15T23:39:01.170Z,22.40
2017-06-15T23:41:35.936Z,22.40
2017-06-15T23:44:09.965Z,22.40
2017-06-15T23:46:44.425Z,22.40
2017-06-15T23:49:18.485Z,22.40
2017-06-15T23:51:52.958Z,22.40
2017-06-15T23:54:26.885Z,22.30
2017-06-15T23:57:01.430Z,22.40
2017-06-15T23:59:35.100Z,22.40
